Sremska Mitrovica, Serbia
Current Conditions -  °F | °C
As of 2:30 AM on Saturday 20 Dec 2014 (Local Time) from LYBT Reporting Station
Moderate Fog Moderate Fog  
Wind Chill: 36°   Ceiling: Unl
Heat Index: 36°   Visibility: 0.12mi
Dew Point: 32°   Wind: 2mph
Humidity: 87%   Direction: 280°W
Pressure: 30.03"   Gusts: NA
Location:  44.98°N, 19.61°E
Report Text: LYBT 200030Z 28002KT 0200 FG NSC 02/00 Q1017 NOSIG
Loading
Personal Weather Stations






























Interactive Weather Map New forecast layout! Learn more

10-Day Weather Forecast

Advertisements
Track Severe Weather on mobile